sensor_id;sensor_type;location;lat;lon;timestamp;P1;durP1;ratioP1;P2;durP2;ratioP2
32172;SDS011;18679;45.190;5.722;2023-09-08T00:00:47;6.60;;;3.58;;
32172;SDS011;18679;45.190;5.722;2023-09-08T00:03:48;7.43;;;3.40;;
32172;SDS011;18679;45.190;5.722;2023-09-08T00:06:49;4.25;;;2.78;;
32172;SDS011;18679;45.190;5.722;2023-09-08T00:09:50;7.75;;;3.22;;
32172;SDS011;18679;45.190;5.722;2023-09-08T00:12:50;8.50;;;3.38;;
32172;SDS011;18679;45.190;5.722;2023-09-08T00:15:51;4.72;;;3.13;;
32172;SDS011;18679;45.190;5.722;2023-09-08T00:18:52;6.97;;;3.28;;
32172;SDS011;18679;45.190;5.722;2023-09-08T00:21:53;4.38;;;3.13;;
32172;SDS011;18679;45.190;5.722;2023-09-08T00:24:54;7.07;;;3.63;;
32172;SDS011;18679;45.190;5.722;2023-09-08T00:27:55;5.90;;;3.00;;
32172;SDS011;18679;45.190;5.722;2023-09-08T00:30:56;8.07;;;3.45;;
32172;SDS011;18679;45.190;5.722;2023-09-08T00:33:57;9.45;;;3.55;;
32172;SDS011;18679;45.190;5.722;2023-09-08T00:36:58;5.07;;;3.10;;
32172;SDS011;18679;45.190;5.722;2023-09-08T00:40:05;7.82;;;3.28;;
32172;SDS011;18679;45.190;5.722;2023-09-08T00:43:08;7.88;;;3.55;;
32172;SDS011;18679;45.190;5.722;2023-09-08T00:46:09;5.20;;;3.10;;
32172;SDS011;18679;45.190;5.722;2023-09-08T00:49:11;3.95;;;2.90;;
32172;SDS011;18679;45.190;5.722;2023-09-08T00:52:13;5.60;;;3.00;;
32172;SDS011;18679;45.190;5.722;2023-09-08T00:55:14;8.07;;;3.45;;
32172;SDS011;18679;45.190;5.722;2023-09-08T00:58:15;4.63;;;3.25;;
32172;SDS011;18679;45.190;5.722;2023-09-08T01:01:16;6.18;;;3.10;;
32172;SDS011;18679;45.190;5.722;2023-09-08T01:04:17;5.00;;;3.35;;
32172;SDS011;18679;45.190;5.722;2023-09-08T01:07:18;6.30;;;3.22;;
32172;SDS011;18679;45.190;5.722;2023-09-08T01:10:20;10.48;;;3.30;;
32172;SDS011;18679;45.190;5.722;2023-09-08T01:13:21;5.25;;;3.33;;
32172;SDS011;18679;45.190;5.722;2023-09-08T01:16:22;5.97;;;3.35;;
32172;SDS011;18679;45.190;5.722;2023-09-08T01:19:23;6.85;;;3.30;;
32172;SDS011;18679;45.190;5.722;2023-09-08T01:25:32;6.15;;;3.63;;
32172;SDS011;18679;45.190;5.722;2023-09-08T01:28:37;6.47;;;3.30;;
32172;SDS011;18679;45.190;5.722;2023-09-08T01:31:40;5.15;;;3.78;;
32172;SDS011;18679;45.190;5.722;2023-09-08T01:34:41;5.97;;;3.88;;
32172;SDS011;18679;45.190;5.722;2023-09-08T01:37:46;9.88;;;3.53;;
32172;SDS011;18679;45.190;5.722;2023-09-08T01:40:49;5.63;;;3.42;;
32172;SDS011;18679;45.190;5.722;2023-09-08T01:43:50;8.43;;;3.55;;
32172;SDS011;18679;45.190;5.722;2023-09-08T01:46:51;9.88;;;3.78;;
32172;SDS011;18679;45.190;5.722;2023-09-08T01:49:56;4.07;;;3.33;;
32172;SDS011;18679;45.190;5.722;2023-09-08T01:52:57;4.13;;;3.38;;
32172;SDS011;18679;45.190;5.722;2023-09-08T01:55:58;5.57;;;3.58;;
32172;SDS011;18679;45.190;5.722;2023-09-08T01:58:59;8.27;;;3.85;;
32172;SDS011;18679;45.190;5.722;2023-09-08T02:02:01;5.75;;;3.70;;
32172;SDS011;18679;45.190;5.722;2023-09-08T02:05:01;9.27;;;3.67;;
32172;SDS011;18679;45.190;5.722;2023-09-08T02:08:03;4.55;;;3.47;;
32172;SDS011;18679;45.190;5.722;2023-09-08T02:11:06;7.80;;;3.75;;
32172;SDS011;18679;45.190;5.722;2023-09-08T02:14:07;5.13;;;3.20;;
32172;SDS011;18679;45.190;5.722;2023-09-08T02:17:09;4.70;;;3.33;;
32172;SDS011;18679;45.190;5.722;2023-09-08T02:20:10;4.32;;;3.20;;
32172;SDS011;18679;45.190;5.722;2023-09-08T02:23:11;7.72;;;3.60;;
32172;SDS011;18679;45.190;5.722;2023-09-08T02:26:12;4.57;;;3.40;;
32172;SDS011;18679;45.190;5.722;2023-09-08T02:29:14;8.80;;;3.50;;
32172;SDS011;18679;45.190;5.722;2023-09-08T02:32:15;4.93;;;3.40;;
32172;SDS011;18679;45.190;5.722;2023-09-08T02:35:16;7.07;;;3.35;;
32172;SDS011;18679;45.190;5.722;2023-09-08T02:38:17;6.57;;;3.85;;
32172;SDS011;18679;45.190;5.722;2023-09-08T02:41:18;5.43;;;3.55;;
32172;SDS011;18679;45.190;5.722;2023-09-08T02:44:19;6.72;;;4.10;;
32172;SDS011;18679;45.190;5.722;2023-09-08T02:47:22;7.32;;;3.90;;
32172;SDS011;18679;45.190;5.722;2023-09-08T02:50:24;8.15;;;3.92;;
32172;SDS011;18679;45.190;5.722;2023-09-08T02:53:25;5.05;;;3.42;;
32172;SDS011;18679;45.190;5.722;2023-09-08T02:56:29;5.45;;;3.80;;
32172;SDS011;18679;45.190;5.722;2023-09-08T02:59:30;4.30;;;3.22;;
32172;SDS011;18679;45.190;5.722;2023-09-08T03:02:31;11.77;;;3.60;;
32172;SDS011;18679;45.190;5.722;2023-09-08T03:05:32;4.93;;;3.70;;
32172;SDS011;18679;45.190;5.722;2023-09-08T03:08:33;11.15;;;4.22;;
32172;SDS011;18679;45.190;5.722;2023-09-08T03:11:38;8.30;;;3.90;;
32172;SDS011;18679;45.190;5.722;2023-09-08T03:14:38;11.73;;;3.97;;
32172;SDS011;18679;45.190;5.722;2023-09-08T03:17:40;9.00;;;3.95;;
32172;SDS011;18679;45.190;5.722;2023-09-08T03:20:42;5.68;;;4.13;;
32172;SDS011;18679;45.190;5.722;2023-09-08T03:23:45;14.55;;;3.47;;
32172;SDS011;18679;45.190;5.722;2023-09-08T03:26:46;5.72;;;3.60;;
32172;SDS011;18679;45.190;5.722;2023-09-08T03:29:47;6.90;;;3.60;;
32172;SDS011;18679;45.190;5.722;2023-09-08T03:32:48;6.85;;;3.88;;
32172;SDS011;18679;45.190;5.722;2023-09-08T03:35:49;5.90;;;4.10;;
32172;SDS011;18679;45.190;5.722;2023-09-08T03:38:50;7.63;;;3.83;;
32172;SDS011;18679;45.190;5.722;2023-09-08T03:41:50;12.90;;;4.43;;
32172;SDS011;18679;45.190;5.722;2023-09-08T03:44:51;6.18;;;3.88;;
32172;SDS011;18679;45.190;5.722;2023-09-08T03:47:52;7.85;;;4.38;;
32172;SDS011;18679;45.190;5.722;2023-09-08T03:50:53;8.52;;;4.18;;
32172;SDS011;18679;45.190;5.722;2023-09-08T03:53:54;9.60;;;3.75;;
32172;SDS011;18679;45.190;5.722;2023-09-08T03:56:55;5.60;;;3.78;;
32172;SDS011;18679;45.190;5.722;2023-09-08T03:59:56;6.10;;;3.55;;
32172;SDS011;18679;45.190;5.722;2023-09-08T04:02:57;6.60;;;3.95;;
32172;SDS011;18679;45.190;5.722;2023-09-08T04:05:58;9.07;;;3.45;;
32172;SDS011;18679;45.190;5.722;2023-09-08T04:08:59;8.82;;;3.58;;
32172;SDS011;18679;45.190;5.722;2023-09-08T04:12:00;11.23;;;3.85;;
32172;SDS011;18679;45.190;5.722;2023-09-08T04:15:02;8.43;;;4.13;;
32172;SDS011;18679;45.190;5.722;2023-09-08T04:18:03;8.18;;;4.03;;
32172;SDS011;18679;45.190;5.722;2023-09-08T04:21:06;7.20;;;4.53;;
32172;SDS011;18679;45.190;5.722;2023-09-08T04:24:07;8.52;;;3.67;;
32172;SDS011;18679;45.190;5.722;2023-09-08T04:27:10;6.20;;;4.00;;
32172;SDS011;18679;45.190;5.722;2023-09-08T04:30:11;7.72;;;3.90;;
32172;SDS011;18679;45.190;5.722;2023-09-08T04:33:13;6.45;;;4.00;;
32172;SDS011;18679;45.190;5.722;2023-09-08T04:36:13;9.25;;;4.00;;
32172;SDS011;18679;45.190;5.722;2023-09-08T04:39:15;9.65;;;3.95;;
32172;SDS011;18679;45.190;5.722;2023-09-08T04:42:16;7.90;;;3.92;;
32172;SDS011;18679;45.190;5.722;2023-09-08T04:45:17;9.02;;;3.92;;
32172;SDS011;18679;45.190;5.722;2023-09-08T04:48:18;5.78;;;4.18;;
32172;SDS011;18679;45.190;5.722;2023-09-08T04:51:19;7.85;;;3.88;;
32172;SDS011;18679;45.190;5.722;2023-09-08T04:54:20;6.32;;;4.07;;
32172;SDS011;18679;45.190;5.722;2023-09-08T04:57:23;10.43;;;3.85;;
32172;SDS011;18679;45.190;5.722;2023-09-08T05:00:26;5.28;;;3.65;;
32172;SDS011;18679;45.190;5.722;2023-09-08T05:03:28;6.82;;;4.18;;
32172;SDS011;18679;45.190;5.722;2023-09-08T05:06:31;11.80;;;4.20;;
32172;SDS011;18679;45.190;5.722;2023-09-08T05:09:32;6.20;;;3.95;;
32172;SDS011;18679;45.190;5.722;2023-09-08T05:12:34;6.22;;;4.20;;
32172;SDS011;18679;45.190;5.722;2023-09-08T05:15:35;7.13;;;3.95;;
32172;SDS011;18679;45.190;5.722;2023-09-08T05:18:40;6.32;;;3.40;;
32172;SDS011;18679;45.190;5.722;2023-09-08T05:21:42;16.95;;;4.10;;
32172;SDS011;18679;45.190;5.722;2023-09-08T05:24:46;8.13;;;4.00;;
32172;SDS011;18679;45.190;5.722;2023-09-08T05:27:48;11.18;;;4.50;;
32172;SDS011;18679;45.190;5.722;2023-09-08T05:30:53;10.25;;;4.40;;
32172;SDS011;18679;45.190;5.722;2023-09-08T05:33:54;6.18;;;3.95;;
32172;SDS011;18679;45.190;5.722;2023-09-08T05:36:56;6.63;;;4.35;;
32172;SDS011;18679;45.190;5.722;2023-09-08T05:39:57;10.30;;;4.50;;
32172;SDS011;18679;45.190;5.722;2023-09-08T05:42:58;8.52;;;4.95;;
32172;SDS011;18679;45.190;5.722;2023-09-08T05:45:59;7.22;;;4.05;;
32172;SDS011;18679;45.190;5.722;2023-09-08T05:49:00;7.53;;;4.60;;
32172;SDS011;18679;45.190;5.722;2023-09-08T05:52:01;18.08;;;5.05;;
32172;SDS011;18679;45.190;5.722;2023-09-08T05:55:03;83.05;;;8.20;;
32172;SDS011;18679;45.190;5.722;2023-09-08T05:58:05;8.98;;;4.65;;
32172;SDS011;18679;45.190;5.722;2023-09-08T06:01:07;11.00;;;4.82;;
32172;SDS011;18679;45.190;5.722;2023-09-08T06:04:09;8.70;;;4.60;;
32172;SDS011;18679;45.190;5.722;2023-09-08T06:07:11;7.63;;;4.53;;
32172;SDS011;18679;45.190;5.722;2023-09-08T06:10:12;7.75;;;4.15;;
32172;SDS011;18679;45.190;5.722;2023-09-08T06:13:13;6.25;;;3.97;;
32172;SDS011;18679;45.190;5.722;2023-09-08T06:16:15;14.73;;;3.88;;
32172;SDS011;18679;45.190;5.722;2023-09-08T06:19:16;13.63;;;4.18;;
32172;SDS011;18679;45.190;5.722;2023-09-08T06:22:17;19.58;;;4.38;;
32172;SDS011;18679;45.190;5.722;2023-09-08T06:25:18;17.02;;;4.75;;
32172;SDS011;18679;45.190;5.722;2023-09-08T06:28:19;9.48;;;4.35;;
32172;SDS011;18679;45.190;5.722;2023-09-08T06:31:21;7.43;;;4.57;;
32172;SDS011;18679;45.190;5.722;2023-09-08T06:34:22;12.15;;;4.50;;
32172;SDS011;18679;45.190;5.722;2023-09-08T06:37:23;6.35;;;4.03;;
32172;SDS011;18679;45.190;5.722;2023-09-08T06:40:25;7.00;;;4.18;;
32172;SDS011;18679;45.190;5.722;2023-09-08T06:43:26;8.68;;;4.07;;
32172;SDS011;18679;45.190;5.722;2023-09-08T06:46:38;12.27;;;5.13;;
32172;SDS011;18679;45.190;5.722;2023-09-08T06:49:39;20.00;;;4.60;;
32172;SDS011;18679;45.190;5.722;2023-09-08T06:52:41;9.77;;;5.43;;
32172;SDS011;18679;45.190;5.722;2023-09-08T06:55:42;14.27;;;5.30;;
32172;SDS011;18679;45.190;5.722;2023-09-08T06:58:43;12.63;;;5.25;;
32172;SDS011;18679;45.190;5.722;2023-09-08T07:01:44;12.63;;;5.25;;
32172;SDS011;18679;45.190;5.722;2023-09-08T07:04:46;11.18;;;4.78;;
32172;SDS011;18679;45.190;5.722;2023-09-08T07:07:47;9.23;;;5.03;;
32172;SDS011;18679;45.190;5.722;2023-09-08T07:10:51;18.02;;;5.00;;
32172;SDS011;18679;45.190;5.722;2023-09-08T07:13:54;7.95;;;5.00;;
32172;SDS011;18679;45.190;5.722;2023-09-08T07:16:55;10.00;;;5.18;;
32172;SDS011;18679;45.190;5.722;2023-09-08T07:19:56;20.52;;;5.00;;
32172;SDS011;18679;45.190;5.722;2023-09-08T07:22:57;9.68;;;5.45;;
32172;SDS011;18679;45.190;5.722;2023-09-08T07:25:59;13.80;;;5.20;;
32172;SDS011;18679;45.190;5.722;2023-09-08T07:29:03;9.05;;;4.90;;
32172;SDS011;18679;45.190;5.722;2023-09-08T07:32:04;8.57;;;5.25;;
32172;SDS011;18679;45.190;5.722;2023-09-08T07:35:06;7.80;;;4.78;;
32172;SDS011;18679;45.190;5.722;2023-09-08T07:38:14;13.52;;;5.43;;
32172;SDS011;18679;45.190;5.722;2023-09-08T07:41:15;8.77;;;5.00;;
32172;SDS011;18679;45.190;5.722;2023-09-08T07:44:17;6.95;;;4.82;;
32172;SDS011;18679;45.190;5.722;2023-09-08T07:47:17;15.13;;;5.28;;
32172;SDS011;18679;45.190;5.722;2023-09-08T07:50:22;10.02;;;4.95;;
32172;SDS011;18679;45.190;5.722;2023-09-08T07:53:25;13.05;;;4.60;;
32172;SDS011;18679;45.190;5.722;2023-09-08T07:56:29;8.35;;;4.60;;
32172;SDS011;18679;45.190;5.722;2023-09-08T07:59:29;9.27;;;4.72;;
32172;SDS011;18679;45.190;5.722;2023-09-08T08:02:31;7.20;;;4.43;;
32172;SDS011;18679;45.190;5.722;2023-09-08T08:05:31;8.43;;;4.72;;
32172;SDS011;18679;45.190;5.722;2023-09-08T08:08:32;10.07;;;4.72;;
32172;SDS011;18679;45.190;5.722;2023-09-08T08:11:38;8.18;;;4.47;;
32172;SDS011;18679;45.190;5.722;2023-09-08T08:14:39;7.80;;;4.53;;
32172;SDS011;18679;45.190;5.722;2023-09-08T08:17:39;7.97;;;4.72;;
32172;SDS011;18679;45.190;5.722;2023-09-08T08:20:40;11.50;;;4.10;;
32172;SDS011;18679;45.190;5.722;2023-09-08T08:23:41;6.93;;;4.45;;
32172;SDS011;18679;45.190;5.722;2023-09-08T08:26:42;9.80;;;4.70;;
32172;SDS011;18679;45.190;5.722;2023-09-08T08:29:43;8.00;;;4.38;;
32172;SDS011;18679;45.190;5.722;2023-09-08T08:32:44;9.43;;;4.07;;
32172;SDS011;18679;45.190;5.722;2023-09-08T08:35:49;6.47;;;3.83;;
32172;SDS011;18679;45.190;5.722;2023-09-08T08:38:50;10.20;;;4.50;;
32172;SDS011;18679;45.190;5.722;2023-09-08T08:41:51;6.70;;;4.40;;
32172;SDS011;18679;45.190;5.722;2023-09-08T08:44:52;11.52;;;4.53;;
32172;SDS011;18679;45.190;5.722;2023-09-08T08:47:53;12.00;;;4.38;;
32172;SDS011;18679;45.190;5.722;2023-09-08T08:50:54;7.22;;;4.07;;
32172;SDS011;18679;45.190;5.722;2023-09-08T08:53:57;7.95;;;4.32;;
32172;SDS011;18679;45.190;5.722;2023-09-08T08:56:58;8.68;;;4.93;;
32172;SDS011;18679;45.190;5.722;2023-09-08T09:00:00;8.05;;;4.97;;
32172;SDS011;18679;45.190;5.722;2023-09-08T09:03:01;5.43;;;4.10;;
32172;SDS011;18679;45.190;5.722;2023-09-08T09:06:04;14.30;;;5.18;;
32172;SDS011;18679;45.190;5.722;2023-09-08T09:09:05;6.93;;;4.22;;
32172;SDS011;18679;45.190;5.722;2023-09-08T09:12:08;8.73;;;4.03;;
32172;SDS011;18679;45.190;5.722;2023-09-08T09:15:09;6.15;;;3.83;;
32172;SDS011;18679;45.190;5.722;2023-09-08T09:18:11;7.00;;;3.92;;
32172;SDS011;18679;45.190;5.722;2023-09-08T09:21:12;5.75;;;4.18;;
32172;SDS011;18679;45.190;5.722;2023-09-08T09:24:14;8.52;;;4.43;;
32172;SDS011;18679;45.190;5.722;2023-09-08T09:27:16;6.63;;;4.22;;
32172;SDS011;18679;45.190;5.722;2023-09-08T09:30:16;12.60;;;4.57;;
32172;SDS011;18679;45.190;5.722;2023-09-08T09:33:18;10.32;;;4.10;;
32172;SDS011;18679;45.190;5.722;2023-09-08T09:36:20;5.35;;;3.92;;
32172;SDS011;18679;45.190;5.722;2023-09-08T09:39:23;9.23;;;4.22;;
32172;SDS011;18679;45.190;5.722;2023-09-08T09:42:24;12.40;;;4.68;;
32172;SDS011;18679;45.190;5.722;2023-09-08T09:45:29;8.88;;;4.15;;
32172;SDS011;18679;45.190;5.722;2023-09-08T09:48:29;7.22;;;4.82;;
32172;SDS011;18679;45.190;5.722;2023-09-08T09:51:31;8.60;;;4.18;;
32172;SDS011;18679;45.190;5.722;2023-09-08T09:54:32;9.13;;;4.32;;
32172;SDS011;18679;45.190;5.722;2023-09-08T09:57:33;8.02;;;3.92;;
32172;SDS011;18679;45.190;5.722;2023-09-08T10:00:37;10.40;;;3.90;;
32172;SDS011;18679;45.190;5.722;2023-09-08T10:03:41;6.53;;;3.88;;
32172;SDS011;18679;45.190;5.722;2023-09-08T10:06:42;6.28;;;3.95;;
32172;SDS011;18679;45.190;5.722;2023-09-08T10:09:45;6.00;;;3.85;;
32172;SDS011;18679;45.190;5.722;2023-09-08T10:12:53;9.90;;;4.22;;
32172;SDS011;18679;45.190;5.722;2023-09-08T10:15:57;12.85;;;4.22;;
32172;SDS011;18679;45.190;5.722;2023-09-08T10:18:59;4.97;;;3.47;;
32172;SDS011;18679;45.190;5.722;2023-09-08T10:22:03;13.52;;;4.45;;
32172;SDS011;18679;45.190;5.722;2023-09-08T10:25:06;16.05;;;3.83;;
32172;SDS011;18679;45.190;5.722;2023-09-08T10:28:09;10.45;;;3.72;;
32172;SDS011;18679;45.190;5.722;2023-09-08T10:31:10;12.00;;;3.90;;
32172;SDS011;18679;45.190;5.722;2023-09-08T10:34:12;10.27;;;4.05;;
32172;SDS011;18679;45.190;5.722;2023-09-08T10:40:25;14.38;;;3.67;;
32172;SDS011;18679;45.190;5.722;2023-09-08T10:43:28;7.70;;;3.30;;
32172;SDS011;18679;45.190;5.722;2023-09-08T10:46:29;4.65;;;3.10;;
32172;SDS011;18679;45.190;5.722;2023-09-08T10:49:34;7.47;;;3.40;;
32172;SDS011;18679;45.190;5.722;2023-09-08T10:52:35;6.78;;;4.03;;
32172;SDS011;18679;45.190;5.722;2023-09-08T10:55:37;7.65;;;3.35;;
32172;SDS011;18679;45.190;5.722;2023-09-08T10:58:43;4.65;;;2.90;;
32172;SDS011;18679;45.190;5.722;2023-09-08T11:01:48;6.60;;;2.70;;
32172;SDS011;18679;45.190;5.722;2023-09-08T11:04:49;6.35;;;2.47;;
32172;SDS011;18679;45.190;5.722;2023-09-08T11:07:51;5.95;;;2.40;;
32172;SDS011;18679;45.190;5.722;2023-09-08T11:10:55;3.42;;;2.28;;
32172;SDS011;18679;45.190;5.722;2023-09-08T11:13:56;7.45;;;2.55;;
32172;SDS011;18679;45.190;5.722;2023-09-08T11:16:57;9.32;;;2.75;;
32172;SDS011;18679;45.190;5.722;2023-09-08T11:19:58;4.43;;;2.55;;
32172;SDS011;18679;45.190;5.722;2023-09-08T11:22:59;6.32;;;2.80;;
32172;SDS011;18679;45.190;5.722;2023-09-08T11:26:00;6.70;;;2.30;;
32172;SDS011;18679;45.190;5.722;2023-09-08T11:29:02;5.03;;;2.10;;
32172;SDS011;18679;45.190;5.722;2023-09-08T11:32:03;13.88;;;2.60;;
32172;SDS011;18679;45.190;5.722;2023-09-08T11:35:05;5.32;;;2.42;;
32172;SDS011;18679;45.190;5.722;2023-09-08T11:38:10;5.13;;;2.30;;
32172;SDS011;18679;45.190;5.722;2023-09-08T11:41:11;9.73;;;2.67;;
32172;SDS011;18679;45.190;5.722;2023-09-08T11:44:15;3.42;;;2.25;;
32172;SDS011;18679;45.190;5.722;2023-09-08T11:47:17;4.85;;;2.35;;
32172;SDS011;18679;45.190;5.722;2023-09-08T11:50:19;4.53;;;2.92;;
32172;SDS011;18679;45.190;5.722;2023-09-08T11:53:23;12.65;;;2.40;;
32172;SDS011;18679;45.190;5.722;2023-09-08T11:56:24;5.75;;;1.90;;
32172;SDS011;18679;45.190;5.722;2023-09-08T11:59:25;3.55;;;2.22;;
32172;SDS011;18679;45.190;5.722;2023-09-08T12:02:36;2.70;;;2.25;;
32172;SDS011;18679;45.190;5.722;2023-09-08T12:05:37;3.00;;;2.47;;
32172;SDS011;18679;45.190;5.722;2023-09-08T12:08:39;8.10;;;2.22;;
32172;SDS011;18679;45.190;5.722;2023-09-08T12:11:40;12.43;;;2.83;;
32172;SDS011;18679;45.190;5.722;2023-09-08T12:14:43;2.88;;;2.13;;
32172;SDS011;18679;45.190;5.722;2023-09-08T12:17:47;3.58;;;2.33;;
32172;SDS011;18679;45.190;5.722;2023-09-08T12:21:02;4.60;;;2.20;;
32172;SDS011;18679;45.190;5.722;2023-09-08T12:24:05;8.70;;;2.45;;
32172;SDS011;18679;45.190;5.722;2023-09-08T12:27:06;4.53;;;2.38;;
32172;SDS011;18679;45.190;5.722;2023-09-08T12:30:07;8.00;;;2.60;;
32172;SDS011;18679;45.190;5.722;2023-09-08T12:33:09;2.53;;;2.33;;
32172;SDS011;18679;45.190;5.722;2023-09-08T12:36:18;3.10;;;2.15;;
32172;SDS011;18679;45.190;5.722;2023-09-08T12:39:19;2.90;;;2.60;;
32172;SDS011;18679;45.190;5.722;2023-09-08T12:42:20;2.60;;;2.15;;
32172;SDS011;18679;45.190;5.722;2023-09-08T12:45:21;4.80;;;2.20;;
32172;SDS011;18679;45.190;5.722;2023-09-08T12:48:23;7.55;;;2.20;;
32172;SDS011;18679;45.190;5.722;2023-09-08T12:51:24;12.15;;;2.30;;
32172;SDS011;18679;45.190;5.722;2023-09-08T12:54:25;5.05;;;1.88;;
32172;SDS011;18679;45.190;5.722;2023-09-08T12:57:26;3.78;;;2.17;;
32172;SDS011;18679;45.190;5.722;2023-09-08T13:00:27;4.30;;;2.25;;
32172;SDS011;18679;45.190;5.722;2023-09-08T13:03:29;2.72;;;1.88;;
32172;SDS011;18679;45.190;5.722;2023-09-08T13:06:30;3.65;;;2.00;;
32172;SDS011;18679;45.190;5.722;2023-09-08T13:09:32;4.00;;;2.30;;
32172;SDS011;18679;45.190;5.722;2023-09-08T13:12:33;3.97;;;2.00;;
32172;SDS011;18679;45.190;5.722;2023-09-08T13:15:34;4.55;;;2.47;;
32172;SDS011;18679;45.190;5.722;2023-09-08T13:18:36;3.00;;;1.90;;
32172;SDS011;18679;45.190;5.722;2023-09-08T13:21:39;4.50;;;2.20;;
32172;SDS011;18679;45.190;5.722;2023-09-08T13:24:39;3.60;;;2.00;;
32172;SDS011;18679;45.190;5.722;2023-09-08T13:27:41;4.85;;;2.50;;
32172;SDS011;18679;45.190;5.722;2023-09-08T13:30:42;4.68;;;2.25;;
32172;SDS011;18679;45.190;5.722;2023-09-08T13:33:43;2.47;;;2.00;;
32172;SDS011;18679;45.190;5.722;2023-09-08T13:36:44;2.70;;;2.10;;
32172;SDS011;18679;45.190;5.722;2023-09-08T13:39:45;3.83;;;1.88;;
32172;SDS011;18679;45.190;5.722;2023-09-08T13:42:46;4.20;;;2.22;;
32172;SDS011;18679;45.190;5.722;2023-09-08T13:45:47;4.25;;;2.40;;
32172;SDS011;18679;45.190;5.722;2023-09-08T13:48:48;4.43;;;2.00;;
32172;SDS011;18679;45.190;5.722;2023-09-08T13:51:49;5.72;;;2.25;;
32172;SDS011;18679;45.190;5.722;2023-09-08T13:54:52;3.50;;;2.17;;
32172;SDS011;18679;45.190;5.722;2023-09-08T13:57:53;3.17;;;2.30;;
32172;SDS011;18679;45.190;5.722;2023-09-08T14:00:53;3.22;;;2.58;;
32172;SDS011;18679;45.190;5.722;2023-09-08T14:03:55;4.00;;;2.10;;
32172;SDS011;18679;45.190;5.722;2023-09-08T14:06:56;5.22;;;2.33;;
32172;SDS011;18679;45.190;5.722;2023-09-08T14:09:57;3.55;;;2.42;;
32172;SDS011;18679;45.190;5.722;2023-09-08T14:12:58;8.15;;;2.53;;
32172;SDS011;18679;45.190;5.722;2023-09-08T14:15:59;6.65;;;2.67;;
32172;SDS011;18679;45.190;5.722;2023-09-08T14:18:59;5.80;;;2.10;;
32172;SDS011;18679;45.190;5.722;2023-09-08T14:22:00;5.78;;;2.65;;
32172;SDS011;18679;45.190;5.722;2023-09-08T14:25:01;3.05;;;2.35;;
32172;SDS011;18679;45.190;5.722;2023-09-08T14:28:03;6.20;;;2.55;;
32172;SDS011;18679;45.190;5.722;2023-09-08T14:31:04;11.82;;;2.88;;
32172;SDS011;18679;45.190;5.722;2023-09-08T14:34:05;4.25;;;2.78;;
32172;SDS011;18679;45.190;5.722;2023-09-08T14:37:06;5.78;;;2.58;;
32172;SDS011;18679;45.190;5.722;2023-09-08T14:40:08;3.45;;;2.22;;
32172;SDS011;18679;45.190;5.722;2023-09-08T14:43:09;3.53;;;2.65;;
32172;SDS011;18679;45.190;5.722;2023-09-08T14:46:10;7.30;;;2.28;;
32172;SDS011;18679;45.190;5.722;2023-09-08T14:49:11;6.30;;;2.67;;
32172;SDS011;18679;45.190;5.722;2023-09-08T14:52:14;4.72;;;2.50;;
32172;SDS011;18679;45.190;5.722;2023-09-08T14:55:16;4.57;;;2.53;;
32172;SDS011;18679;45.190;5.722;2023-09-08T14:58:17;8.43;;;2.42;;
32172;SDS011;18679;45.190;5.722;2023-09-08T15:01:18;4.60;;;2.53;;
32172;SDS011;18679;45.190;5.722;2023-09-08T15:04:19;5.60;;;2.30;;
32172;SDS011;18679;45.190;5.722;2023-09-08T15:07:20;3.72;;;2.63;;
32172;SDS011;18679;45.190;5.722;2023-09-08T15:10:21;6.82;;;2.15;;
32172;SDS011;18679;45.190;5.722;2023-09-08T15:13:22;4.85;;;2.67;;
32172;SDS011;18679;45.190;5.722;2023-09-08T15:16:23;7.80;;;2.58;;
32172;SDS011;18679;45.190;5.722;2023-09-08T15:19:24;3.88;;;2.80;;
32172;SDS011;18679;45.190;5.722;2023-09-08T15:22:25;8.40;;;3.08;;
32172;SDS011;18679;45.190;5.722;2023-09-08T15:25:26;10.63;;;2.90;;
32172;SDS011;18679;45.190;5.722;2023-09-08T15:28:27;7.18;;;2.40;;
32172;SDS011;18679;45.190;5.722;2023-09-08T15:31:28;3.90;;;2.67;;
32172;SDS011;18679;45.190;5.722;2023-09-08T15:34:29;4.10;;;2.40;;
32172;SDS011;18679;45.190;5.722;2023-09-08T15:37:29;5.57;;;2.90;;
32172;SDS011;18679;45.190;5.722;2023-09-08T15:40:30;5.38;;;2.38;;
32172;SDS011;18679;45.190;5.722;2023-09-08T15:43:31;7.07;;;2.80;;
32172;SDS011;18679;45.190;5.722;2023-09-08T15:46:33;11.00;;;3.10;;
32172;SDS011;18679;45.190;5.722;2023-09-08T15:49:34;3.03;;;2.22;;
32172;SDS011;18679;45.190;5.722;2023-09-08T15:52:35;3.05;;;2.70;;
32172;SDS011;18679;45.190;5.722;2023-09-08T15:55:37;5.43;;;2.20;;
32172;SDS011;18679;45.190;5.722;2023-09-08T15:58:37;3.28;;;2.50;;
32172;SDS011;18679;45.190;5.722;2023-09-08T16:01:39;4.38;;;2.50;;
32172;SDS011;18679;45.190;5.722;2023-09-08T16:04:40;3.42;;;2.40;;
32172;SDS011;18679;45.190;5.722;2023-09-08T16:07:41;5.35;;;2.00;;
32172;SDS011;18679;45.190;5.722;2023-09-08T16:10:42;3.42;;;2.30;;
32172;SDS011;18679;45.190;5.722;2023-09-08T16:13:43;2.92;;;2.22;;
32172;SDS011;18679;45.190;5.722;2023-09-08T16:16:44;5.30;;;2.47;;
32172;SDS011;18679;45.190;5.722;2023-09-08T16:19:45;6.25;;;2.47;;
32172;SDS011;18679;45.190;5.722;2023-09-08T16:22:46;7.95;;;2.53;;
32172;SDS011;18679;45.190;5.722;2023-09-08T16:25:49;6.43;;;2.20;;
32172;SDS011;18679;45.190;5.722;2023-09-08T16:28:50;8.07;;;2.55;;
32172;SDS011;18679;45.190;5.722;2023-09-08T16:31:51;7.13;;;2.40;;
32172;SDS011;18679;45.190;5.722;2023-09-08T16:34:51;5.90;;;2.33;;
32172;SDS011;18679;45.190;5.722;2023-09-08T16:37:53;3.78;;;2.20;;
32172;SDS011;18679;45.190;5.722;2023-09-08T16:40:54;3.42;;;2.17;;
32172;SDS011;18679;45.190;5.722;2023-09-08T16:43:58;2.78;;;2.15;;
32172;SDS011;18679;45.190;5.722;2023-09-08T16:46:58;3.10;;;2.17;;
32172;SDS011;18679;45.190;5.722;2023-09-08T16:49:59;4.07;;;2.75;;
32172;SDS011;18679;45.190;5.722;2023-09-08T16:53:00;8.25;;;3.42;;
32172;SDS011;18679;45.190;5.722;2023-09-08T16:56:01;4.47;;;2.40;;
32172;SDS011;18679;45.190;5.722;2023-09-08T16:59:08;5.70;;;2.88;;
32172;SDS011;18679;45.190;5.722;2023-09-08T17:02:09;3.63;;;2.70;;
32172;SDS011;18679;45.190;5.722;2023-09-08T17:05:10;3.95;;;2.45;;
32172;SDS011;18679;45.190;5.722;2023-09-08T17:08:15;7.45;;;2.90;;
32172;SDS011;18679;45.190;5.722;2023-09-08T17:11:16;3.58;;;2.35;;
32172;SDS011;18679;45.190;5.722;2023-09-08T17:14:18;5.28;;;2.80;;
32172;SDS011;18679;45.190;5.722;2023-09-08T17:17:19;5.93;;;2.72;;
32172;SDS011;18679;45.190;5.722;2023-09-08T17:20:20;4.35;;;2.53;;
32172;SDS011;18679;45.190;5.722;2023-09-08T17:23:20;6.85;;;2.88;;
32172;SDS011;18679;45.190;5.722;2023-09-08T17:26:23;4.93;;;2.70;;
32172;SDS011;18679;45.190;5.722;2023-09-08T17:29:24;5.88;;;2.80;;
32172;SDS011;18679;45.190;5.722;2023-09-08T17:32:25;4.88;;;2.35;;
32172;SDS011;18679;45.190;5.722;2023-09-08T17:35:25;7.30;;;2.40;;
32172;SDS011;18679;45.190;5.722;2023-09-08T17:38:26;7.65;;;2.50;;
32172;SDS011;18679;45.190;5.722;2023-09-08T17:41:27;7.57;;;2.83;;
32172;SDS011;18679;45.190;5.722;2023-09-08T17:44:28;7.78;;;2.40;;
32172;SDS011;18679;45.190;5.722;2023-09-08T17:47:29;5.30;;;2.58;;
32172;SDS011;18679;45.190;5.722;2023-09-08T17:50:30;5.22;;;3.03;;
32172;SDS011;18679;45.190;5.722;2023-09-08T17:53:31;8.63;;;3.20;;
32172;SDS011;18679;45.190;5.722;2023-09-08T17:56:35;8.77;;;2.67;;
32172;SDS011;18679;45.190;5.722;2023-09-08T17:59:38;2.92;;;2.40;;
32172;SDS011;18679;45.190;5.722;2023-09-08T18:02:39;6.13;;;2.90;;
32172;SDS011;18679;45.190;5.722;2023-09-08T18:05:40;8.52;;;2.55;;
32172;SDS011;18679;45.190;5.722;2023-09-08T18:08:41;3.88;;;2.40;;
32172;SDS011;18679;45.190;5.722;2023-09-08T18:11:42;6.00;;;2.60;;
32172;SDS011;18679;45.190;5.722;2023-09-08T18:14:43;4.40;;;2.67;;
32172;SDS011;18679;45.190;5.722;2023-09-08T18:17:44;4.90;;;2.70;;